Time;durP1;ratioP1;P1;durP2;ratioP2;P2;SDS_P1;SDS_P2;PMS_P1;PMS_P2;Temp;Humidity;BMP_temperature;BMP_pressure;BME280_temperature;BME280_humidity;BME280_pressure;Samples;Min_cycle;Max_cycle;Signal;HPM_P1;HPM_P2
2022/11/06 06:03:55;;;;;;;11.13;4.05;;;;;;;9.54;100.00;101096.41;5011051;28;20061;-75
2022/11/06 06:06:21;;;;;;;13.10;4.05;;;;;;;9.54;100.00;101095.59;5018090;28;20061;-76
2022/11/06 06:08:46;;;;;;;9.82;3.70;;;;;;;9.60;100.00;101093.34;5018787;28;20530;-76
2022/11/06 06:11:11;;;;;;;9.05;3.72;;;;;;;9.53;100.00;101085.59;5019711;28;20695;-77
2022/11/06 06:13:37;;;;;;;7.82;3.50;;;;;;;9.54;100.00;101085.22;5076851;22;20055;-75
2022/11/06 06:16:03;;;;;;;12.25;4.55;;;;;;;9.52;100.00;101081.97;5052354;28;20033;-75
2022/11/06 06:18:28;;;;;;;8.15;3.83;;;;;;;9.55;100.00;101069.28;5053739;28;20032;-76
2022/11/06 06:20:56;;;;;;;12.23;4.50;;;;;;;9.44;100.00;101062.63;5057495;28;20033;-75
2022/11/06 06:23:22;;;;;;;9.57;3.83;;;;;;;9.47;100.00;101062.72;5057659;28;20033;-76
2022/11/06 06:25:47;;;;;;;11.00;4.18;;;;;;;9.47;100.00;101059.94;5057306;28;20055;-76
2022/11/06 06:28:12;;;;;;;9.63;4.03;;;;;;;9.49;100.00;101063.16;5059485;28;20392;-76
2022/11/06 06:30:38;;;;;;;11.50;4.55;;;;;;;9.46;100.00;101051.91;5065865;28;20059;-76
2022/11/06 06:33:06;;;;;;;5.25;3.75;;;;;;;9.51;100.00;101055.22;5055569;28;20048;-76
2022/11/06 06:35:32;;;;;;;11.30;3.88;;;;;;;9.52;100.00;101056.84;5054431;28;20036;-76
2022/11/06 06:37:58;;;;;;;8.50;3.30;;;;;;;9.57;100.00;101066.91;5057400;28;20028;-75
2022/11/06 06:40:23;;;;;;;8.95;3.70;;;;;;;9.55;100.00;101070.09;5057355;28;20060;-76
2022/11/06 06:42:49;;;;;;;9.60;3.85;;;;;;;9.55;100.00;101070.09;5055710;28;20029;-76
2022/11/06 06:45:15;;;;;;;13.45;5.65;;;;;;;9.56;100.00;101054.94;5062742;28;20103;-76
2022/11/06 06:47:41;;;;;;;7.38;3.53;;;;;;;9.52;100.00;101051.25;5054905;28;20033;-76
2022/11/06 06:50:07;;;;;;;8.40;4.35;;;;;;;9.57;100.00;101041.75;5057623;28;20066;-76
2022/11/06 06:52:32;;;;;;;11.88;3.50;;;;;;;9.53;100.00;101049.28;5056594;28;20020;-75
2022/11/06 06:54:57;;;;;;;12.30;3.30;;;;;;;9.54;100.00;101051.69;5054326;28;20016;-76
2022/11/06 06:57:23;;;;;;;12.10;3.72;;;;;;;9.53;100.00;101047.28;5050657;28;20363;-75
2022/11/06 06:59:48;;;;;;;9.52;3.95;;;;;;;9.55;100.00;101053.31;5047308;28;20027;-76
2022/11/06 07:02:13;;;;;;;9.63;3.30;;;;;;;9.61;100.00;101051.03;5039564;28;20033;-76
2022/11/06 07:04:39;;;;;;;9.23;3.40;;;;;;;9.55;100.00;101058.09;5030726;28;20060;-76
2022/11/06 07:07:04;;;;;;;15.05;5.55;;;;;;;9.61;100.00;101055.81;5039450;28;20389;-76
2022/11/06 07:09:30;;;;;;;9.18;3.72;;;;;;;9.56;100.00;101054.94;5038695;28;20059;-75
2022/11/06 07:11:56;;;;;;;8.15;3.92;;;;;;;9.63;100.00;101042.28;5037135;28;20051;-76
2022/11/06 07:14:22;;;;;;;12.48;4.68;;;;;;;9.59;100.00;101044.19;5038746;28;20413;-75
2022/11/06 07:16:47;;;;;;;6.88;3.65;;;;;;;9.55;100.00;101050.53;5032381;28;20043;-76
2022/11/06 07:19:12;;;;;;;12.10;3.53;;;;;;;9.52;100.00;101054.03;5030333;28;20373;-76
2022/11/06 07:21:38;;;;;;;6.07;3.05;;;;;;;9.61;100.00;101056.63;5033491;28;20028;-76
2022/11/06 07:24:03;;;;;;;7.45;3.28;;;;;;;9.60;100.00;101062.59;5032987;28;20744;-76
2022/11/06 07:26:29;;;;;;;5.60;3.22;;;;;;;9.60;100.00;101057.81;5033371;28;20021;-76
2022/11/06 07:28:54;;;;;;;11.23;3.22;;;;;;;9.61;100.00;101055.81;5034834;28;20031;-75
2022/11/06 07:31:19;;;;;;;12.55;3.75;;;;;;;9.48;100.00;101041.97;5037825;28;20025;-76
2022/11/06 07:33:45;;;;;;;5.13;3.58;;;;;;;9.50;100.00;101036.81;5033746;28;20033;-76
2022/11/06 07:36:12;;;;;;;6.68;3.65;;;;;;;9.51;100.00;101046.03;5036669;28;20112;-76
2022/11/06 07:38:40;;;;;;;7.00;3.95;;;;;;;9.55;100.00;101035.75;5035649;28;20132;-76
2022/11/06 07:41:11;;;;;;;7.72;4.20;;;;;;;9.64;100.00;101033.53;5030297;28;20025;-75
2022/11/06 07:43:37;;;;;;;8.65;3.03;;;;;;;9.61;100.00;101033.47;5029660;28;20031;-76
2022/11/06 07:46:05;;;;;;;6.32;3.05;;;;;;;9.66;100.00;101041.56;5035129;28;20024;-76
2022/11/06 07:48:31;;;;;;;12.23;4.00;;;;;;;9.73;100.00;101041.69;5027462;28;20025;-75
2022/11/06 07:51:00;;;;;;;9.38;3.50;;;;;;;9.76;100.00;101035.34;5034933;28;20044;-76
2022/11/06 07:53:26;;;;;;;8.93;4.10;;;;;;;9.72;100.00;101034.50;5035493;28;20107;-75
2022/11/06 07:55:53;;;;;;;9.27;3.53;;;;;;;9.81;100.00;101032.28;5033932;28;20033;-76
2022/11/06 07:58:19;;;;;;;9.57;3.42;;;;;;;9.75;100.00;101022.56;5028953;28;22638;-76
2022/11/06 08:00:53;;;;;;;11.32;3.38;;;;;;;9.77;100.00;101017.41;5024699;28;20033;-76
2022/11/06 08:03:18;;;;;;;8.35;3.58;;;;;;;9.80;100.00;101013.88;5029080;28;20033;-75
2022/11/06 08:05:44;;;;;;;8.45;4.57;;;;;;;9.83;100.00;101010.34;5037049;28;20383;-76
2022/11/06 08:08:10;;;;;;;14.90;3.85;;;;;;;9.85;100.00;101010.78;5033447;28;20078;-76
2022/11/06 08:10:39;;;;;;;10.27;3.08;;;;;;;9.86;100.00;101022.78;5031071;28;20021;-76
2022/11/06 08:13:12;;;;;;;9.65;3.63;;;;;;;9.90;100.00;101018.88;5030604;28;20049;-76
2022/11/06 08:15:37;;;;;;;;;;;;;;;9.90;100.00;101018.06;5026935;28;20055;-76
2022/11/06 08:18:03;;;;;;;9.68;4.07;;;;;;;9.91;100.00;101014.91;5032165;28;20003;-75
2022/11/06 08:20:29;;;;;;;5.72;3.05;;;;;;;9.90;100.00;101032.84;5027526;28;20124;-76
2022/11/06 08:22:59;;;;;;;10.38;3.40;;;;;;;9.94;100.00;101025.34;5030808;28;20056;-75
2022/11/06 08:25:24;;;;;;;8.75;3.65;;;;;;;9.94;100.00;101036.53;5030203;28;20024;-75
2022/11/06 08:27:49;;;;;;;11.52;4.90;;;;;;;9.91;100.00;101025.28;5028645;28;20412;-75
2022/11/06 08:30:15;;;;;;;7.20;3.10;;;;;;;9.91;100.00;101023.28;5032210;28;20372;-76
2022/11/06 08:32:40;;;;;;;7.70;3.20;;;;;;;9.92;100.00;101010.91;5031794;28;20395;-76
2022/11/06 08:35:06;;;;;;;9.13;3.03;;;;;;;9.95;100.00;101013.00;5032254;28;20037;-76
2022/11/06 08:37:31;;;;;;;6.97;3.80;;;;;;;9.97;100.00;101013.44;5028932;28;20460;-77
2022/11/06 08:39:56;;;;;;;9.45;3.83;;;;;;;10.01;100.00;101007.88;5035370;28;20037;-77
2022/11/06 08:42:22;;;;;;;9.65;4.32;;;;;;;10.05;100.00;100999.56;5016371;28;20087;-76
2022/11/06 08:44:47;;;;;;;8.40;3.70;;;;;;;10.08;100.00;100994.06;5031670;28;20071;-77
2022/11/06 08:47:13;;;;;;;5.57;3.92;;;;;;;10.06;100.00;100978.81;5036393;28;20029;-76
2022/11/06 08:49:38;;;;;;;5.00;3.67;;;;;;;10.19;100.00;100991.44;5036357;28;20021;-76
2022/11/06 08:52:03;;;;;;;7.93;3.10;;;;;;;10.17;100.00;100996.59;5045539;28;20025;-77
2022/11/06 08:54:29;;;;;;;11.43;4.20;;;;;;;10.17;100.00;100989.00;5044779;28;20370;-77
2022/11/06 08:56:56;;;;;;;11.20;3.22;;;;;;;10.24;100.00;100977.13;5045832;28;20020;-76
2022/11/06 08:59:21;;;;;;;9.65;3.38;;;;;;;10.31;100.00;100976.50;5041700;28;20048;-76
2022/11/06 09:01:47;;;;;;;10.75;4.00;;;;;;;10.36;100.00;100978.97;5039229;28;20115;-76
2022/11/06 09:04:12;;;;;;;7.95;3.28;;;;;;;10.36;100.00;100967.78;5046964;28;20033;-76
2022/11/06 09:06:37;;;;;;;5.88;2.75;;;;;;;10.41;100.00;100963.84;5048334;28;20029;-76
2022/11/06 09:09:03;;;;;;;11.10;5.40;;;;;;;10.44;100.00;100963.13;5039971;28;20074;-77
2022/11/06 09:11:28;;;;;;;9.52;3.03;;;;;;;10.50;100.00;100962.44;5041857;28;20029;-76
2022/11/06 09:13:53;;;;;;;8.00;3.80;;;;;;;10.49;100.00;100954.41;5037357;28;20052;-76
2022/11/06 09:16:19;;;;;;;7.80;3.53;;;;;;;10.57;100.00;100950.53;5039628;28;20969;-76
2022/11/06 09:18:44;;;;;;;8.75;3.20;;;;;;;10.60;100.00;100955.34;5036777;28;20060;-75
2022/11/06 09:21:09;;;;;;;11.93;3.22;;;;;;;10.66;100.00;100953.84;5039694;28;20067;-75
2022/11/06 09:23:35;;;;;;;4.72;3.13;;;;;;;10.69;100.00;100939.13;5040112;28;20021;-75
2022/11/06 09:26:00;;;;;;;8.13;3.63;;;;;;;10.75;100.00;100951.63;5025568;28;20396;-76
2022/11/06 09:28:25;;;;;;;11.45;3.28;;;;;;;10.72;100.00;100941.16;5039223;28;20388;-75
2022/11/06 09:30:51;;;;;;;15.63;3.05;;;;;;;10.76;100.00;100939.22;5030734;28;20022;-76
2022/11/06 09:33:16;;;;;;;5.32;3.20;;;;;;;10.75;100.00;100940.41;5038627;28;20029;-77
2022/11/06 09:35:41;;;;;;;11.35;3.15;;;;;;;10.78;100.00;100931.25;5042503;28;20052;-76
2022/11/06 09:38:10;;;;;;;7.72;3.17;;;;;;;10.78;100.00;100922.84;5040754;28;20028;-77
2022/11/06 09:40:41;;;;;;;10.70;3.55;;;;;;;10.76;100.00;100925.22;5039172;28;20479;-76
2022/11/06 09:43:21;;;;;;;6.15;2.83;;;;;;;10.78;100.00;100928.44;5037752;28;20419;-76
2022/11/06 09:45:53;;;;;;;8.23;3.17;;;;;;;10.81;100.00;100909.28;5044296;28;20032;-76
2022/11/06 09:48:25;;;;;;;10.82;3.55;;;;;;;10.87;100.00;100916.16;5041294;28;20759;-75
2022/11/06 09:51:01;;;;;;;7.10;2.47;;;;;;;10.89;100.00;100917.38;5035665;28;20483;-76
2022/11/06 09:53:35;;;;;;;10.73;3.38;;;;;;;10.91;100.00;100908.63;5038833;28;20029;-76
2022/11/06 09:56:04;;;;;;;7.20;2.50;;;;;;;10.91;100.00;100915.03;5052340;28;20033;-76
2022/11/06 09:58:34;;;;;;;5.50;2.67;;;;;;;10.97;100.00;100912.69;5036745;28;20033;-75
2022/11/06 10:01:06;;;;;;;5.50;2.97;;;;;;;10.98;100.00;100914.31;5039067;28;20025;-75
2022/11/06 10:03:49;;;;;;;6.03;2.80;;;;;;;11.08;100.00;100912.84;5035334;28;20028;-75
2022/11/06 10:06:15;;;;;;;6.60;3.00;;;;;;;11.17;100.00;100911.38;5037690;28;20033;-76
2022/11/06 10:08:42;;;;;;;7.10;3.42;;;;;;;11.22;99.99;100917.81;5039497;28;20458;-76
2022/11/06 10:11:14;;;;;;;7.60;2.70;;;;;;;11.26;99.52;100913.88;5039877;28;20029;-77
2022/11/06 10:13:39;;;;;;;8.30;2.90;;;;;;;11.27;99.77;100909.06;5036470;28;20045;-76
2022/11/06 10:16:25;;;;;;;5.45;2.92;;;;;;;11.33;99.28;100910.34;5038439;28;20029;-77
2022/11/06 10:19:02;;;;;;;8.55;4.00;;;;;;;11.36;98.88;100917.97;5029683;28;20040;-76
2022/11/06 10:21:42;;;;;;;6.60;2.88;;;;;;;11.36;98.91;100912.38;5030857;28;20121;-76
2022/11/06 10:24:22;;;;;;;7.43;3.17;;;;;;;11.37;98.64;100903.59;5052154;28;20612;-76
2022/11/06 10:26:53;;;;;;;6.25;2.70;;;;;;;11.36;98.67;100906.75;5040118;28;20024;-77
2022/11/06 10:29:43;;;;;;;5.38;2.30;;;;;;;11.41;98.30;100892.44;5031661;28;20424;-76
2022/11/06 10:32:40;;;;;;;5.80;2.55;;;;;;;11.43;99.00;100903.25;5038058;28;20033;-76
2022/11/06 10:35:32;;;;;;;7.82;2.92;;;;;;;11.40;98.31;100896.41;5036173;28;20025;-76
2022/11/06 10:38:11;;;;;;;5.22;2.95;;;;;;;11.39;99.12;100889.19;5037662;28;20535;-76
2022/11/06 10:40:37;;;;;;;7.45;2.88;;;;;;;11.47;98.21;100887.25;5036562;28;20179;-77
2022/11/06 10:43:34;;;;;;;6.43;2.50;;;;;;;11.37;98.89;100886.78;5031320;28;20420;-76
2022/11/06 10:46:39;;;;;;;8.23;3.33;;;;;;;11.44;98.49;100871.22;5029377;28;20032;-77
2022/11/06 10:49:14;;;;;;;5.80;2.15;;;;;;;11.39;98.04;100878.00;5034919;28;20033;-76
2022/11/06 10:51:56;;;;;;;9.40;3.60;;;;;;;11.38;98.42;100873.56;5036818;28;20472;-77
2022/11/06 10:55:15;;;;;;;9.25;3.20;;;;;;;11.43;98.13;100862.03;5036908;28;20028;-76
2022/11/06 10:57:57;;;;;;;3.88;2.40;;;;;;;11.42;97.88;100860.41;4976803;28;20061;-76
2022/11/06 11:00:23;;;;;;;17.63;4.18;;;;;;;11.45;97.73;100859.63;5037485;28;20032;-77
2022/11/06 11:02:51;;;;;;;6.13;3.17;;;;;;;11.46;97.89;100860.44;5035013;28;20025;-76
2022/11/06 11:05:21;;;;;;;5.68;2.65;;;;;;;11.45;97.41;100854.03;5037611;28;20104;-76
2022/11/06 11:07:48;;;;;;;3.00;1.90;;;;;;;11.41;97.81;100849.59;5037830;28;20108;-76
2022/11/06 11:10:22;;;;;;;13.57;3.22;;;;;;;11.43;97.62;100850.81;5036476;28;20032;-76
2022/11/06 11:12:49;;;;;;;6.88;3.38;;;;;;;11.49;98.30;100849.28;5035793;28;20061;-76
2022/11/06 11:15:17;;;;;;;5.50;2.88;;;;;;;11.49;97.76;100845.66;5026271;28;20476;-76
2022/11/06 11:18:07;;;;;;;8.40;2.72;;;;;;;11.53;97.43;100849.28;5040107;28;20111;-77
2022/11/06 11:20:35;;;;;;;6.55;2.40;;;;;;;11.56;98.02;100852.13;5042047;28;20545;-76
2022/11/06 11:23:21;;;;;;;5.38;2.38;;;;;;;11.58;97.53;100834.94;5037155;28;20083;-76
2022/11/06 11:25:53;;;;;;;6.22;2.40;;;;;;;11.62;96.79;100834.97;5040982;28;20032;-76
2022/11/06 11:28:28;;;;;;;8.73;2.67;;;;;;;11.63;96.93;100833.78;5041770;28;20531;-76
2022/11/06 11:31:01;;;;;;;3.85;2.20;;;;;;;11.61;96.50;100822.94;5044334;28;20032;-76
2022/11/06 11:33:27;;;;;;;9.05;3.50;;;;;;;11.62;96.39;100812.56;5031263;28;20037;-76
2022/11/06 11:35:54;;;;;;;5.60;2.50;;;;;;;11.65;96.29;100817.38;5027725;28;20385;-76
2022/11/06 11:38:21;;;;;;;6.53;3.08;;;;;;;11.59;96.16;100809.34;5041312;28;20048;-76
2022/11/06 11:40:47;;;;;;;11.70;3.47;;;;;;;11.64;95.49;100798.94;5035048;28;20116;-77
2022/11/06 11:43:25;;;;;;;8.77;3.05;;;;;;;11.58;95.26;100799.28;5039782;28;20029;-75
2022/11/06 11:46:08;;;;;;;8.75;2.97;;;;;;;11.61;96.26;100789.28;5038178;28;20180;-75
2022/11/06 11:49:01;;;;;;;6.95;2.80;;;;;;;11.60;94.89;100791.31;5033715;28;20037;-76
2022/11/06 11:51:35;;;;;;;6.45;3.50;;;;;;;11.63;95.09;100786.13;5037971;28;20048;-76
2022/11/06 11:54:05;;;;;;;3.80;2.03;;;;;;;11.65;95.48;100783.72;5042160;28;20032;-78
2022/11/06 11:56:31;;;;;;;5.50;3.35;;;;;;;11.61;94.75;100778.09;5036300;28;20027;-76
2022/11/06 11:58:59;;;;;;;5.57;2.42;;;;;;;11.60;94.15;100771.69;5036009;28;21071;-75
2022/11/06 12:01:39;;;;;;;8.77;2.20;;;;;;;11.65;94.28;100766.91;5035554;28;20048;-76
2022/11/06 12:04:46;;;;;;;6.20;2.65;;;;;;;11.66;93.40;100762.91;5038388;28;20555;-76
2022/11/06 12:07:24;;;;;;;7.97;2.38;;;;;;;11.68;93.30;100758.53;5036105;28;20480;-76
2022/11/06 12:09:49;;;;;;;7.47;3.15;;;;;;;11.71;92.83;100751.34;5034204;28;20029;-76
2022/11/06 12:12:32;;;;;;;4.50;2.33;;;;;;;11.72;93.37;100756.56;5037318;28;20029;-76
2022/11/06 12:15:18;;;;;;;11.70;3.25;;;;;;;11.70;92.78;100741.31;5036582;28;20029;-74
2022/11/06 12:18:06;;;;;;;4.38;2.28;;;;;;;11.67;93.45;100736.47;5031387;28;20021;-75
2022/11/06 12:20:49;;;;;;;6.43;2.33;;;;;;;11.69;92.96;100734.09;5037014;28;20424;-75
2022/11/06 12:23:18;;;;;;;4.57;1.67;;;;;;;11.67;93.46;100728.06;5038308;28;20396;-75
2022/11/06 12:25:55;;;;;;;4.97;2.47;;;;;;;11.68;93.68;100726.88;5037873;28;20111;-75
2022/11/06 12:28:22;;;;;;;6.40;2.10;;;;;;;11.69;92.65;100722.88;5036555;28;20112;-75
2022/11/06 12:31:02;;;;;;;4.90;2.47;;;;;;;11.71;92.28;100717.69;5031441;28;20280;-74
2022/11/06 12:33:28;;;;;;;7.45;3.20;;;;;;;11.69;91.70;100718.06;5039444;28;20442;-75
2022/11/06 12:35:58;;;;;;;8.07;2.13;;;;;;;11.68;91.03;100708.06;5043437;28;20029;-73
2022/11/06 12:38:44;;;;;;;8.10;2.30;;;;;;;11.70;91.55;100710.47;5039393;28;20452;-74
2022/11/06 12:41:15;;;;;;;10.18;3.13;;;;;;;11.69;90.87;100698.44;5033774;28;20030;-75
2022/11/06 12:43:49;;;;;;;6.03;2.75;;;;;;;11.67;91.29;100702.84;5045096;28;20099;-75
2022/11/06 12:46:39;;;;;;;5.40;2.28;;;;;;;11.67;91.55;100692.44;5050055;28;20112;-75
2022/11/06 12:49:16;;;;;;;6.22;2.72;;;;;;;11.69;90.88;100683.63;5047693;28;20029;-75
2022/11/06 12:52:06;;;;;;;7.25;2.58;;;;;;;11.67;90.91;100686.03;5044885;28;20025;-75
2022/11/06 12:54:52;;;;;;;5.43;1.92;;;;;;;11.71;90.95;100681.25;5041257;28;20079;-75
2022/11/06 12:57:39;;;;;;;8.68;2.42;;;;;;;11.71;91.29;100673.63;5044084;28;20502;-75
2022/11/06 13:00:17;;;;;;;6.68;2.67;;;;;;;11.76;91.35;100669.66;5029429;28;20082;-74
2022/11/06 13:03:40;;;;;;;3.38;1.95;;;;;;;11.77;90.85;100685.28;5030370;28;20025;-75
2022/11/06 13:06:20;;;;;;;6.85;2.25;;;;;;;11.71;90.31;100665.22;4942591;28;20479;-75
2022/11/06 13:09:09;;;;;;;11.95;3.03;;;;;;;11.71;89.77;100670.03;4939272;28;20039;-75
2022/11/06 13:11:51;;;;;;;4.75;2.30;;;;;;;11.71;90.61;100672.81;5019897;28;20492;-74
2022/11/06 13:14:31;;;;;;;5.22;1.83;;;;;;;11.70;90.16;100676.81;5030364;28;20614;-75
2022/11/06 13:17:03;;;;;;;7.00;2.13;;;;;;;11.73;89.55;100678.84;5031541;28;20025;-74
2022/11/06 13:19:40;;;;;;;9.98;2.30;;;;;;;11.70;89.86;100680.44;5035169;28;20040;-75
2022/11/06 13:22:16;;;;;;;6.63;2.50;;;;;;;11.72;88.47;100671.63;5042968;28;20090;-75
2022/11/06 13:24:59;;;;;;;5.35;2.03;;;;;;;11.72;87.52;100663.22;5043922;28;20036;-75
2022/11/06 13:27:38;;;;;;;3.88;2.03;;;;;;;11.71;87.70;100658.81;5039445;28;20033;-74
2022/11/06 13:30:16;;;;;;;7.20;2.63;;;;;;;11.70;86.50;100657.19;5045723;28;20488;-74
2022/11/06 13:32:46;;;;;;;6.90;2.60;;;;;;;11.69;87.12;100666.81;5039680;28;20472;-74
2022/11/06 13:35:20;;;;;;;6.05;1.92;;;;;;;11.67;87.21;100666.41;5029846;28;20029;-75
2022/11/06 13:37:48;;;;;;;4.88;2.00;;;;;;;11.62;86.45;100661.97;5044272;28;20063;-74
2022/11/06 13:40:23;;;;;;;5.38;2.08;;;;;;;11.57;86.86;100657.53;5041140;28;20104;-75
2022/11/06 13:42:55;;;;;;;3.85;1.73;;;;;;;11.62;86.92;100655.56;5046151;28;20047;-74
2022/11/06 13:45:22;;;;;;;6.75;2.60;;;;;;;11.62;87.20;100661.16;5044055;28;20029;-75
2022/11/06 13:47:56;;;;;;;8.90;1.98;;;;;;;11.63;87.27;100662.75;5045801;28;20599;-75
2022/11/06 13:50:32;;;;;;;5.38;1.75;;;;;;;11.59;88.19;100652.34;5047382;28;20099;-75
2022/11/06 13:53:19;;;;;;;12.10;2.80;;;;;;;11.57;87.74;100657.53;5042750;28;20396;-75
2022/11/06 13:56:12;;;;;;;8.50;2.95;;;;;;;11.60;86.78;100648.31;5039988;28;20047;-75
2022/11/06 13:58:56;;;;;;;15.25;5.78;;;;;;;11.56;86.94;100646.69;5042601;28;20583;-75
2022/11/06 14:01:45;;;;;;;3.60;2.30;;;;;;;11.60;87.58;100647.53;5047536;28;20508;-75
2022/11/06 14:04:29;;;;;;;6.95;3.35;;;;;;;11.60;87.49;100642.72;5026455;28;20059;-74
2022/11/06 14:06:59;;;;;;;6.35;2.75;;;;;;;11.60;87.76;100642.72;5040394;28;20036;-75
2022/11/06 14:09:29;;;;;;;8.60;3.85;;;;;;;11.59;86.97;100638.31;5040422;28;20114;-74
2022/11/06 14:11:57;;;;;;;6.43;3.13;;;;;;;11.56;86.35;100636.28;5046667;28;20476;-75
2022/11/06 14:14:29;;;;;;;5.43;2.80;;;;;;;11.59;86.76;100638.31;5035432;28;20103;-75
2022/11/06 14:17:22;;;;;;;4.38;2.45;;;;;;;11.63;86.90;100637.53;5021170;28;20045;-74
2022/11/06 14:19:50;;;;;;;5.32;2.47;;;;;;;11.57;87.07;100640.72;5040060;28;20112;-74
2022/11/06 14:22:35;;;;;;;10.80;2.95;;;;;;;11.51;87.39;100633.88;5034615;28;20460;-75
2022/11/06 14:25:26;;;;;;;7.35;3.33;;;;;;;11.54;87.98;100626.66;5040229;28;20542;-75
2022/11/06 14:27:51;;;;;;;9.40;3.00;;;;;;;11.53;87.42;100630.66;5036656;28;20039;-75
2022/11/06 14:30:38;;;;;;;12.40;2.80;;;;;;;11.54;87.76;100624.66;5038810;28;20036;-75
2022/11/06 14:33:09;;;;;;;6.88;2.55;;;;;;;11.52;88.21;100618.63;5032409;28;20791;-75
2022/11/06 14:35:34;;;;;;;7.28;3.20;;;;;;;11.53;88.44;100622.25;5045654;28;20476;-75
2022/11/06 14:38:09;;;;;;;6.78;2.53;;;;;;;11.48;88.15;100622.63;5042866;28;20048;-74
2022/11/06 14:40:38;;;;;;;6.07;2.92;;;;;;;11.52;88.59;100615.84;5044614;28;20017;-75
2022/11/06 14:43:21;;;;;;;4.72;2.10;;;;;;;11.46;88.34;100620.19;5038910;28;20039;-75
2022/11/06 14:45:52;;;;;;;11.32;3.88;;;;;;;11.44;90.26;100616.97;5038566;28;20086;-75
2022/11/06 14:48:36;;;;;;;9.18;3.25;;;;;;;11.39;89.39;100620.16;5044379;28;20037;-75
2022/11/06 14:51:03;;;;;;;8.07;3.08;;;;;;;11.46;90.18;100614.59;5044245;28;20025;-75
2022/11/06 14:53:33;;;;;;;6.50;2.50;;;;;;;11.47;90.73;100615.38;5038819;28;20435;-75
2022/11/06 14:56:02;;;;;;;11.93;3.28;;;;;;;11.33;91.62;100618.91;5043145;28;20047;-74
2022/11/06 14:58:40;;;;;;;7.72;5.43;;;;;;;11.29;92.48;100620.88;5026415;28;20140;-75
2022/11/06 15:01:08;;;;;;;9.05;5.65;;;;;;;11.34;92.84;100618.53;5028792;28;20025;-74
2022/11/06 15:03:47;;;;;;;7.35;3.63;;;;;;;11.21;92.51;100608.00;5026591;28;20036;-75
2022/11/06 15:06:15;;;;;;;5.55;5.05;;;;;;;11.15;93.18;100616.78;5027764;28;20072;-74
2022/11/06 15:08:49;;;;;;;7.28;2.55;;;;;;;11.19;92.87;100616.81;5026865;28;20083;-74
2022/11/06 15:11:33;;;;;;;10.95;4.43;;;;;;;11.12;93.84;100616.75;5031357;28;20796;-74
2022/11/06 15:13:58;;;;;;;3.72;2.63;;;;;;;11.05;94.47;100617.50;5036957;28;20656;-74
2022/11/06 15:16:39;;;;;;;5.82;2.50;;;;;;;11.04;92.04;100615.88;5039681;28;20028;-74
2022/11/06 15:19:11;;;;;;;7.47;3.13;;;;;;;10.98;93.73;100609.03;5052556;28;20060;-75
2022/11/06 15:21:44;;;;;;;4.82;3.92;;;;;;;11.01;93.87;100616.69;5038843;28;20112;-75
2022/11/06 15:24:24;;;;;;;10.32;2.97;;;;;;;10.96;90.85;100619.81;5038397;28;20040;-75
2022/11/06 15:26:53;;;;;;;5.47;2.85;;;;;;;10.94;93.22;100605.41;5039332;28;20417;-76
2022/11/06 15:29:25;;;;;;;6.55;2.67;;;;;;;10.69;90.96;100607.97;5038411;28;20400;-75
2022/11/06 15:32:05;;;;;;;5.15;2.92;;;;;;;10.67;92.48;100608.38;5035942;28;20604;-74
2022/11/06 15:35:01;;;;;;;4.22;2.30;;;;;;;10.64;92.62;100595.13;5036345;28;20288;-75
2022/11/06 15:37:31;;;;;;;4.65;1.90;;;;;;;10.48;95.35;100595.41;5033892;28;20037;-74
2022/11/06 15:39:57;;;;;;;2.38;1.90;;;;;;;10.40;93.62;100593.72;5036727;28;20036;-75
2022/11/06 15:42:26;;;;;;;6.25;2.13;;;;;;;10.28;95.39;100591.16;5036688;28;20017;-74
2022/11/06 15:45:09;;;;;;;7.65;2.83;;;;;;;10.22;96.19;100581.47;5038704;28;20417;-76
2022/11/06 15:47:34;;;;;;;6.32;3.58;;;;;;;10.12;98.28;100571.81;5032285;28;20032;-75
2022/11/06 15:50:16;;;;;;;12.10;4.78;;;;;;;10.05;97.61;100583.69;5036214;28;20032;-75
2022/11/06 15:52:46;;;;;;;12.30;4.32;;;;;;;9.91;99.23;100577.94;5035815;28;20535;-75
2022/11/06 15:55:33;;;;;;;5.97;3.63;;;;;;;10.01;100.00;100565.25;5034385;28;20385;-74
2022/11/06 15:58:15;;;;;;;4.05;2.70;;;;;;;9.90;99.17;100559.56;5033406;28;20055;-75
2022/11/06 16:00:40;;;;;;;8.02;5.90;;;;;;;9.64;98.89;100563.22;5037155;28;20083;-74
2022/11/06 16:03:10;;;;;;;5.50;4.32;;;;;;;9.67;98.63;100556.88;5037662;28;20423;-74
2022/11/06 16:05:36;;;;;;;6.20;4.25;;;;;;;9.65;99.90;100564.81;5028368;28;20539;-74
2022/11/06 16:08:04;;;;;;;6.10;3.30;;;;;;;9.45;100.00;100564.16;5035194;28;20487;-74
2022/11/06 16:10:30;;;;;;;8.65;4.25;;;;;;;9.79;99.70;100562.22;5030150;28;20033;-74
2022/11/06 16:12:55;;;;;;;8.48;6.43;;;;;;;9.56;100.00;100551.16;5040264;28;20068;-74
2022/11/06 16:15:41;;;;;;;5.85;2.45;;;;;;;9.44;100.00;100559.75;5040640;28;20057;-74
2022/11/06 16:18:15;;;;;;;6.05;3.30;;;;;;;9.40;100.00;100548.53;5040632;28;20033;-74
2022/11/06 16:20:43;;;;;;;4.43;2.85;;;;;;;9.49;100.00;100546.28;5043580;28;20507;-74
2022/11/06 16:23:14;;;;;;;5.13;3.45;;;;;;;9.59;100.00;100543.97;5045770;28;20052;-74
2022/11/06 16:25:39;;;;;;;7.60;4.20;;;;;;;9.28;100.00;100529.22;5043783;28;20033;-74
2022/11/06 16:28:14;;;;;;;8.00;4.50;;;;;;;9.03;100.00;100526.88;5034630;28;20048;-74
2022/11/06 16:30:39;;;;;;;4.75;2.80;;;;;;;8.94;100.00;100507.59;5037542;28;20025;-74
2022/11/06 16:33:20;;;;;;;10.35;3.72;;;;;;;9.53;100.00;100499.63;5036195;28;20775;-74
2022/11/06 16:35:45;;;;;;;8.50;3.65;;;;;;;9.24;100.00;100503.22;5034171;28;20090;-74
2022/11/06 16:38:14;;;;;;;5.82;3.92;;;;;;;9.26;100.00;100498.06;5034363;28;20079;-74
2022/11/06 16:40:51;;;;;;;10.38;6.25;;;;;;;8.80;100.00;100493.41;5033539;28;20518;-74
2022/11/06 16:43:19;;;;;;;8.60;6.70;;;;;;;9.09;100.00;100494.66;5039115;28;20128;-74
2022/11/06 16:45:51;;;;;;;15.15;9.68;;;;;;;9.04;100.00;100497.75;5041759;28;20487;-74
2022/11/06 16:48:33;;;;;;;18.52;11.13;;;;;;;8.99;100.00;100478.53;5041406;28;20039;-74
2022/11/06 16:51:14;;;;;;;10.00;6.82;;;;;;;8.87;100.00;100487.13;5038605;28;20029;-74
2022/11/06 16:53:57;;;;;;;5.55;4.32;;;;;;;8.85;100.00;100478.34;5042529;28;20483;-74
2022/11/06 16:56:29;;;;;;;6.63;6.10;;;;;;;8.72;100.00;100464.59;5060184;28;20257;-74
2022/11/06 16:59:01;;;;;;;7.00;6.40;;;;;;;8.77;100.00;100460.69;5038610;28;20043;-74
2022/11/06 17:01:29;;;;;;;3.15;2.85;;;;;;;8.69;100.00;100454.19;5038775;28;20029;-74
2022/11/06 17:03:58;;;;;;;4.43;3.90;;;;;;;8.64;100.00;100443.34;5035011;28;20088;-74
2022/11/06 17:06:27;;;;;;;3.78;2.63;;;;;;;8.45;100.00;100438.66;5036761;28;21313;-74
2022/11/06 17:09:02;;;;;;;3.53;2.50;;;;;;;8.47;100.00;100441.09;5037078;28;20508;-74
2022/11/06 17:11:28;;;;;;;5.63;3.97;;;;;;;8.41;100.00;100435.03;5040729;28;20116;-73
2022/11/06 17:13:53;;;;;;;5.82;5.00;;;;;;;8.30;100.00;100431.22;5034797;28;20163;-74
2022/11/06 17:16:22;;;;;;;4.35;3.38;;;;;;;8.33;100.00;100431.28;5030582;28;20056;-75
2022/11/06 17:18:47;;;;;;;7.13;6.53;;;;;;;8.44;100.00;100411.16;5021944;28;20036;-74
2022/11/06 17:21:17;;;;;;;4.97;4.47;;;;;;;8.56;100.00;100422.13;5026686;28;20392;-75
2022/11/06 17:23:44;;;;;;;4.38;3.10;;;;;;;8.35;100.00;100411.41;5011977;28;20021;-75
2022/11/06 17:26:17;;;;;;;5.03;3.50;;;;;;;8.27;100.00;100416.06;5030193;28;20056;-75
2022/11/06 17:28:43;;;;;;;5.63;2.72;;;;;;;8.47;100.00;100415.97;5029438;28;20033;-75
2022/11/06 17:31:14;;;;;;;4.47;2.60;;;;;;;8.66;100.00;100421.44;5027411;28;20408;-75
2022/11/06 17:33:40;;;;;;;4.85;2.60;;;;;;;8.44;100.00;100411.16;5029380;28;20837;-75
2022/11/06 17:36:07;;;;;;;4.10;2.50;;;;;;;8.45;100.00;100416.34;5031053;28;20592;-75
2022/11/06 17:38:32;;;;;;;2.85;2.33;;;;;;;8.48;100.00;100420.41;5035410;28;20116;-75
2022/11/06 17:40:57;;;;;;;2.97;2.28;;;;;;;8.54;100.00;100424.47;5036599;28;20037;-75
2022/11/06 17:43:23;;;;;;;3.83;3.00;;;;;;;8.31;100.00;100418.91;5028048;28;20029;-75
2022/11/06 17:45:48;;;;;;;8.40;3.22;;;;;;;8.42;100.00;100417.09;5038075;28;20542;-75
2022/11/06 17:48:15;;;;;;;3.95;2.33;;;;;;;8.44;100.00;100413.94;5036549;28;20164;-75